createdAt,value
2022-11-08T00:01:00.566Z,8.84
2022-11-08T00:06:20.808Z,8.90
2022-11-08T00:11:40.935Z,8.83
2022-11-08T00:16:42.359Z,8.72
2022-11-08T00:21:43.756Z,8.82
2022-11-08T00:26:45.191Z,8.89
2022-11-08T00:31:46.623Z,8.91
2022-11-08T00:36:48.059Z,8.95
2022-11-08T00:41:49.548Z,8.93
2022-11-08T00:46:51.183Z,8.98
2022-11-08T00:51:52.662Z,8.94
2022-11-08T00:56:54.130Z,8.99
2022-11-08T01:01:55.703Z,8.89
2022-11-08T01:06:57.164Z,8.78
2022-11-08T01:11:58.624Z,8.58
2022-11-08T01:17:00.052Z,8.44
2022-11-08T01:22:01.462Z,8.40
2022-11-08T01:27:02.876Z,8.42
2022-11-08T01:32:04.468Z,8.48
2022-11-08T01:37:05.880Z,8.46
2022-11-08T01:42:07.340Z,8.36
2022-11-08T01:47:08.942Z,8.26
2022-11-08T01:52:13.407Z,8.15
2022-11-08T01:57:21.059Z,8.16
2022-11-08T02:02:22.653Z,8.11
2022-11-08T02:07:24.810Z,8.10
2022-11-08T02:12:27.810Z,8.10
2022-11-08T02:17:29.691Z,8.07
2022-11-08T02:22:35.318Z,8.06
2022-11-08T02:27:36.752Z,7.97
2022-11-08T02:32:39.749Z,7.84
2022-11-08T02:37:42.712Z,7.75
2022-11-08T02:42:44.149Z,7.69
2022-11-08T02:47:45.537Z,7.72
2022-11-08T02:52:46.949Z,7.73
2022-11-08T02:57:48.360Z,7.67
2022-11-08T03:02:57.273Z,7.64
2022-11-08T03:07:58.927Z,7.53
2022-11-08T03:13:03.372Z,7.48
2022-11-08T03:18:04.867Z,7.47
2022-11-08T03:23:07.135Z,7.40
2022-11-08T03:28:09.234Z,7.35
2022-11-08T03:33:11.143Z,7.30
2022-11-08T03:38:12.589Z,7.36
2022-11-08T03:43:14.488Z,7.41
2022-11-08T03:48:16.098Z,7.34
2022-11-08T03:53:17.892Z,7.39
2022-11-08T03:58:19.553Z,7.29
2022-11-08T04:03:21.159Z,7.27
2022-11-08T04:08:22.644Z,7.28
2022-11-08T04:13:42.630Z,7.32
2022-11-08T04:19:02.744Z,7.31
2022-11-08T04:24:04.253Z,7.32
2022-11-08T04:29:05.647Z,7.27
2022-11-08T04:34:07.215Z,7.26
2022-11-08T04:39:08.648Z,7.28
2022-11-08T04:44:10.392Z,7.31
2022-11-08T04:49:11.840Z,7.28
2022-11-08T04:54:13.250Z,7.27
2022-11-08T04:59:14.704Z,7.20
2022-11-08T05:04:16.129Z,7.21
2022-11-08T05:09:17.537Z,7.14
2022-11-08T05:14:19.048Z,7.18
2022-11-08T05:19:40.429Z,7.19
2022-11-08T05:24:41.848Z,7.17
2022-11-08T05:29:43.263Z,7.23
2022-11-08T05:34:44.679Z,7.20
2022-11-08T05:39:46.076Z,7.25
2022-11-08T05:44:47.482Z,7.20
2022-11-08T05:49:49.259Z,7.17
2022-11-08T05:54:50.665Z,7.23
2022-11-08T05:59:52.089Z,7.30
2022-11-08T06:04:53.487Z,7.25
2022-11-08T06:09:54.900Z,7.18
2022-11-08T06:14:56.353Z,7.18
2022-11-08T06:19:57.756Z,7.29
2022-11-08T06:24:59.602Z,7.29
2022-11-08T06:30:01.020Z,7.37
2022-11-08T06:35:02.494Z,7.43
2022-11-08T06:40:04.202Z,7.47
2022-11-08T06:45:06.139Z,7.55
2022-11-08T06:50:07.693Z,7.71
2022-11-08T06:55:09.241Z,7.76
2022-11-08T07:00:11.364Z,7.88
2022-11-08T07:05:13.014Z,8.00
2022-11-08T07:10:14.426Z,8.10
2022-11-08T07:15:16.120Z,8.22
2022-11-08T07:20:17.626Z,8.33
2022-11-08T07:25:19.109Z,8.44
2022-11-08T07:30:20.623Z,8.58
2022-11-08T07:35:22.610Z,8.76
2022-11-08T07:40:24.715Z,8.96
2022-11-08T07:45:27.469Z,9.23
2022-11-08T07:50:29.403Z,9.59
2022-11-08T07:55:30.852Z,9.96
2022-11-08T08:00:36.307Z,10.27
2022-11-08T08:05:41.854Z,10.57
2022-11-08T08:10:43.257Z,10.78
2022-11-08T08:15:44.681Z,11.07
2022-11-08T08:20:46.969Z,11.32
2022-11-08T08:25:48.461Z,11.68
2022-11-08T08:30:49.912Z,11.96
2022-11-08T08:35:55.246Z,12.27
2022-11-08T08:40:56.948Z,12.33
2022-11-08T08:46:03.182Z,12.38
2022-11-08T08:51:04.830Z,12.48
2022-11-08T08:56:07.230Z,12.64
2022-11-08T09:06:33.198Z,12.95
2022-11-08T09:11:34.866Z,13.00
2022-11-08T09:16:36.324Z,13.11
2022-11-08T09:21:38.031Z,13.29
2022-11-08T09:26:39.486Z,13.43
2022-11-08T09:31:41.267Z,13.58
2022-11-08T09:36:42.701Z,13.59
2022-11-08T09:42:29.592Z,13.66
2022-11-08T09:47:37.926Z,13.81
2022-11-08T09:52:42.006Z,13.98
2022-11-08T09:57:58.501Z,13.98
2022-11-08T10:03:01.699Z,13.99
2022-11-08T10:08:36.496Z,13.88
2022-11-08T10:14:00.858Z,14.12
2022-11-08T10:19:08.302Z,14.09
2022-11-08T10:24:20.529Z,14.03
2022-11-08T10:29:27.859Z,14.22
2022-11-08T10:34:39.593Z,14.41
2022-11-08T10:39:54.609Z,14.59
2022-11-08T10:44:56.144Z,15.33
2022-11-08T10:50:03.399Z,15.71
2022-11-08T10:55:23.233Z,16.03
2022-11-08T11:00:24.552Z,15.78
2022-11-08T11:05:35.532Z,15.59
2022-11-08T11:10:41.363Z,15.71
2022-11-08T11:15:47.775Z,15.63
2022-11-08T11:21:05.883Z,15.54
2022-11-08T11:26:17.231Z,15.57
2022-11-08T11:31:18.700Z,15.47
2022-11-08T11:36:24.443Z,15.59
2022-11-08T11:41:36.620Z,15.73
2022-11-08T11:46:55.207Z,15.91
2022-11-08T11:51:58.043Z,15.85
2022-11-08T11:57:07.589Z,15.78
2022-11-08T12:02:36.939Z,15.83
2022-11-08T12:07:46.446Z,15.86
2022-11-08T12:13:09.347Z,16.03
2022-11-08T12:18:50.657Z,16.16
2022-11-08T12:24:15.440Z,16.17
2022-11-08T12:29:24.225Z,16.05
2022-11-08T12:34:49.391Z,16.03
2022-11-08T12:40:00.575Z,15.94
2022-11-08T12:45:34.152Z,16.03
2022-11-08T12:50:46.041Z,16.02
2022-11-08T12:55:48.554Z,16.00
2022-11-08T13:00:52.405Z,16.02
2022-11-08T13:06:08.004Z,16.04
2022-11-08T13:11:16.710Z,15.96
2022-11-08T13:16:24.287Z,15.87
2022-11-08T13:21:25.632Z,15.85
2022-11-08T13:26:28.328Z,15.77
2022-11-08T13:31:43.380Z,15.66
2022-11-08T13:36:51.452Z,15.67
2022-11-08T13:42:04.280Z,15.70
2022-11-08T13:47:34.561Z,15.69
2022-11-08T13:52:47.583Z,15.63
2022-11-08T13:58:00.910Z,15.48
2022-11-08T14:03:02.513Z,15.49
2022-11-08T14:08:16.137Z,15.38
2022-11-08T14:13:33.667Z,15.22
2022-11-08T14:18:39.120Z,15.10
2022-11-08T14:23:42.234Z,14.89
2022-11-08T14:28:46.696Z,14.76
2022-11-08T14:33:48.182Z,14.59
2022-11-08T14:39:03.064Z,14.53
2022-11-08T14:44:04.961Z,14.47
2022-11-08T14:49:15.731Z,14.38
2022-11-08T14:54:19.724Z,14.32
2022-11-08T14:59:23.778Z,14.21
2022-11-08T15:04:26.036Z,14.13
2022-11-08T15:09:31.445Z,13.96
2022-11-08T15:14:36.268Z,13.80
2022-11-08T15:19:46.085Z,13.70
2022-11-08T15:24:47.512Z,13.57
2022-11-08T15:29:51.339Z,13.48
2022-11-08T15:34:55.503Z,13.31
2022-11-08T15:40:07.436Z,13.24
2022-11-08T15:45:17.805Z,13.07
2022-11-08T15:50:24.904Z,13.00
2022-11-08T15:55:30.056Z,12.97
2022-11-08T16:00:36.336Z,12.89
2022-11-08T16:05:38.154Z,12.76
2022-11-08T16:10:45.998Z,12.66
2022-11-08T16:15:48.125Z,12.58
2022-11-08T16:20:49.615Z,12.51
2022-11-08T16:25:54.690Z,12.49
2022-11-08T16:30:56.983Z,12.36
2022-11-08T16:36:06.443Z,12.26
2022-11-08T16:41:07.896Z,12.12
2022-11-08T16:46:09.627Z,12.00
2022-11-08T16:51:18.742Z,11.96
2022-11-08T16:56:20.086Z,11.87
2022-11-08T17:01:27.483Z,11.70
2022-11-08T17:06:29.020Z,11.65
2022-11-08T17:11:30.566Z,11.56
2022-11-08T17:16:32.365Z,11.65
2022-11-08T17:21:49.608Z,11.69
2022-11-08T17:26:51.066Z,11.62
2022-11-08T17:31:53.029Z,11.61
2022-11-08T17:36:54.493Z,11.50
2022-11-08T17:41:55.931Z,11.39
2022-11-08T17:46:57.459Z,11.35
2022-11-08T17:51:58.935Z,11.32
2022-11-08T17:57:00.775Z,11.23
2022-11-08T18:02:02.364Z,11.17
2022-11-08T18:07:04.049Z,10.93
2022-11-08T18:12:05.771Z,10.77
2022-11-08T18:17:07.276Z,10.81
2022-11-08T18:22:08.755Z,10.79
2022-11-08T18:27:10.190Z,10.70
2022-11-08T18:32:11.615Z,10.70
2022-11-08T18:37:13.058Z,10.67
2022-11-08T18:42:14.462Z,10.60
2022-11-08T18:47:15.917Z,10.64
2022-11-08T18:52:17.570Z,10.53
2022-11-08T18:57:19.814Z,10.50
2022-11-08T19:02:22.041Z,10.29
2022-11-08T19:07:24.297Z,10.41
2022-11-08T19:12:28.523Z,10.28
2022-11-08T19:17:31.827Z,10.27
2022-11-08T19:22:33.297Z,10.30
2022-11-08T19:27:34.718Z,10.15
2022-11-08T19:32:36.132Z,10.05
2022-11-08T19:37:37.569Z,10.14
2022-11-08T19:42:38.970Z,10.17
2022-11-08T19:47:40.424Z,10.14
2022-11-08T19:52:41.816Z,10.09
2022-11-08T19:57:43.248Z,10.10
2022-11-08T20:02:44.836Z,10.01
2022-11-08T20:07:47.032Z,9.97
2022-11-08T20:12:48.505Z,9.86
2022-11-08T20:17:49.937Z,10.15
2022-11-08T20:22:51.353Z,9.97
2022-11-08T20:27:52.825Z,10.05
2022-11-08T20:32:54.243Z,10.05
2022-11-08T20:37:58.554Z,10.04
2022-11-08T20:42:59.948Z,9.97
2022-11-08T20:48:02.878Z,9.98
2022-11-08T20:53:04.475Z,9.88
2022-11-08T20:58:05.981Z,10.03
2022-11-08T21:03:07.457Z,10.02
2022-11-08T21:08:57.831Z,9.97
2022-11-08T21:13:32.797Z,9.94
2022-11-08T21:18:35.887Z,9.99
2022-11-08T21:23:39.249Z,10.00
2022-11-08T21:28:41.248Z,10.03
2022-11-08T21:33:42.901Z,10.06
2022-11-08T21:38:44.483Z,10.09
2022-11-08T21:43:47.537Z,10.12
2022-11-08T21:48:56.872Z,10.08
2022-11-08T21:53:59.174Z,9.97
2022-11-08T21:59:01.505Z,9.88
2022-11-08T22:04:02.955Z,9.85
2022-11-08T22:09:04.503Z,10.01
2022-11-08T22:14:05.906Z,10.10
2022-11-08T22:19:07.801Z,10.23
2022-11-08T22:24:15.112Z,10.29
2022-11-08T22:29:17.192Z,10.12
2022-11-08T22:34:18.968Z,10.17
2022-11-08T22:39:23.081Z,10.21
2022-11-08T22:44:24.543Z,10.22
2022-11-08T22:49:25.996Z,10.27
2022-11-08T22:54:27.454Z,10.26
2022-11-08T22:59:28.880Z,10.24
2022-11-08T23:04:30.286Z,10.21
2022-11-08T23:09:31.691Z,10.21
2022-11-08T23:14:51.880Z,10.20
2022-11-08T23:20:11.839Z,10.17
2022-11-08T23:25:13.289Z,10.13
2022-11-08T23:30:35.566Z,10.18
2022-11-08T23:35:36.992Z,10.16
2022-11-08T23:40:58.685Z,10.13
2022-11-08T23:46:11.879Z,10.27
2022-11-08T23:51:13.275Z,10.36
2022-11-08T23:56:25.539Z,10.35
